createdAt,value
2022-09-01T00:01:43.176Z,100783.56
2022-09-01T00:05:46.255Z,100784.38
2022-09-01T00:09:47.848Z,100775.69
2022-09-01T00:13:50.786Z,100779.16
2022-09-01T00:17:52.365Z,100777.41
2022-09-01T00:21:55.545Z,100781.78
2022-09-01T00:25:57.150Z,100780.00
2022-09-01T00:30:00.207Z,100785.19
2022-09-01T00:34:02.398Z,100775.63
2022-09-01T00:38:04.137Z,100778.13
2022-09-01T00:42:05.825Z,100782.41
2022-09-01T00:46:13.424Z,100784.91
2022-09-01T00:50:20.776Z,100786.47
2022-09-01T00:54:27.571Z,100785.38
2022-09-01T00:58:30.565Z,100788.72
2022-09-01T01:02:32.681Z,100792.06
2022-09-01T01:06:34.267Z,100791.06
2022-09-01T01:10:39.234Z,100791.94
2022-09-01T01:14:41.697Z,100783.28
2022-09-01T01:18:47.959Z,100787.69
2022-09-01T01:23:20.824Z,100786.81
2022-09-01T01:27:22.974Z,100785.78
2022-09-01T01:31:25.640Z,100780.31
2022-09-01T01:35:27.782Z,100780.31
2022-09-01T01:39:29.521Z,100783.78
2022-09-01T01:43:32.342Z,100782.91
2022-09-01T01:47:34.280Z,100784.44
2022-09-01T01:51:37.029Z,100786.81
2022-09-01T01:55:41.749Z,100791.16
2022-09-01T01:59:44.391Z,100786.06
2022-09-01T02:03:45.951Z,100781.84
2022-09-01T02:07:48.831Z,100783.53
2022-09-01T02:11:57.093Z,100781.84
2022-09-01T02:16:02.314Z,100782.53
2022-09-01T02:20:04.417Z,100784.94
2022-09-01T02:24:08.395Z,100787.41
2022-09-01T02:28:15.833Z,100790.72
2022-09-01T02:32:19.405Z,100786.94
2022-09-01T02:36:21.940Z,100787.84
2022-09-01T02:40:23.641Z,100785.31
2022-09-01T02:44:29.078Z,100781.91
2022-09-01T02:48:38.007Z,100785.47
2022-09-01T02:52:40.534Z,100789.81
2022-09-01T02:56:44.802Z,100790.59
2022-09-01T03:00:54.076Z,100787.84
2022-09-01T03:04:57.403Z,100786.94
2022-09-01T03:09:00.360Z,100787.03
2022-09-01T03:13:08.718Z,100783.59
2022-09-01T03:17:11.341Z,100785.41
2022-09-01T03:21:17.107Z,100781.06
2022-09-01T03:25:19.480Z,100784.59
2022-09-01T03:29:22.466Z,100789.78
2022-09-01T03:33:26.741Z,100794.09
2022-09-01T03:37:30.271Z,100798.34
2022-09-01T03:41:32.781Z,100799.94
2022-09-01T03:45:38.395Z,100800.78
2022-09-01T03:49:43.562Z,100796.44
2022-09-01T03:53:47.260Z,100799.06
2022-09-01T03:58:06.471Z,100791.22
2022-09-01T04:02:13.057Z,100798.88
2022-09-01T04:06:18.490Z,100799.69
2022-09-01T04:10:22.260Z,100802.03
2022-09-01T04:14:25.529Z,100797.31
2022-09-01T04:18:30.649Z,100789.72
2022-09-01T04:22:36.015Z,100790.53
2022-09-01T04:26:38.345Z,100788.53
2022-09-01T04:30:43.064Z,100797.31
2022-09-01T04:34:51.104Z,100800.81
2022-09-01T04:38:56.139Z,100796.44
2022-09-01T04:42:59.021Z,100791.16
2022-09-01T04:47:03.157Z,100792.16
2022-09-01T04:51:10.388Z,100788.75
2022-09-01T04:55:28.690Z,100783.47
2022-09-01T04:59:30.872Z,100791.22
2022-09-01T05:03:35.893Z,100790.38
2022-09-01T05:08:13.750Z,100790.22
2022-09-01T05:12:25.061Z,100791.75
2022-09-01T05:16:27.935Z,100791.88
2022-09-01T05:20:31.965Z,100792.03
2022-09-01T05:24:38.522Z,100802.47
2022-09-01T05:28:46.663Z,100799.00
2022-09-01T05:32:50.563Z,100799.75
2022-09-01T05:36:54.636Z,100804.69
2022-09-01T05:41:04.006Z,100802.09
2022-09-01T05:45:08.048Z,100815.94
2022-09-01T05:49:13.815Z,100809.22
2022-09-01T05:53:17.403Z,100814.28
2022-09-01T05:57:34.436Z,100815.34
2022-09-01T06:01:41.580Z,100809.06
2022-09-01T06:05:45.735Z,100805.03
2022-09-01T06:09:48.768Z,100806.81
2022-09-01T06:13:55.909Z,100813.94
2022-09-01T06:17:59.302Z,100810.75
2022-09-01T06:22:02.669Z,100812.50
2022-09-01T06:26:05.547Z,100809.97
2022-09-01T06:30:15.025Z,100818.53
2022-09-01T06:34:22.582Z,100813.25
2022-09-01T06:38:25.298Z,100818.59
2022-09-01T06:42:26.894Z,100818.72
2022-09-01T06:46:34.307Z,100821.34
2022-09-01T06:55:05.714Z,100829.34
2022-09-01T06:59:10.349Z,100825.25
2022-09-01T07:03:14.791Z,100828.19
2022-09-01T07:12:32.043Z,100837.44
2022-09-01T07:16:40.520Z,100843.78
2022-09-01T07:21:36.195Z,100844.78
2022-09-01T07:25:17.493Z,100844.84
2022-09-01T07:29:26.238Z,100843.84
2022-09-01T07:33:48.016Z,100845.00
2022-09-01T07:51:38.029Z,100851.41
2022-09-01T07:55:43.836Z,100844.47
2022-09-01T07:59:45.877Z,100841.13
2022-09-01T08:03:55.738Z,100843.84
2022-09-01T08:07:57.792Z,100853.53
2022-09-01T08:12:08.067Z,100846.72
2022-09-01T08:16:17.887Z,100849.53
2022-09-01T08:20:20.560Z,100849.63
2022-09-01T08:24:33.987Z,100838.44
2022-09-01T08:28:36.334Z,100844.66
2022-09-01T08:32:38.296Z,100841.22
2022-09-01T08:36:40.197Z,100848.19
2022-09-01T08:40:51.414Z,100849.13
2022-09-01T08:45:23.914Z,100851.78
2022-09-01T08:49:27.305Z,100847.44
2022-09-01T08:53:47.409Z,100844.84
2022-09-01T08:57:54.846Z,100838.75
2022-09-01T09:02:15.001Z,100837.91
2022-09-01T09:06:25.798Z,100843.97
2022-09-01T09:10:37.177Z,100838.75
2022-09-01T09:15:16.161Z,100838.69
2022-09-01T09:19:29.750Z,100839.56
2022-09-01T09:23:36.754Z,100827.38
2022-09-01T09:27:43.965Z,100822.13
2022-09-01T09:31:52.446Z,100819.56
2022-09-01T09:35:57.403Z,100820.41
2022-09-01T09:40:01.966Z,100823.00
2022-09-01T09:44:16.199Z,100819.47
2022-09-01T09:48:30.291Z,100813.19
2022-09-01T09:52:33.600Z,100807.09
2022-09-01T09:56:36.130Z,100804.38
2022-09-01T10:00:38.844Z,100805.00
2022-09-01T10:04:40.632Z,100792.69
2022-09-01T10:08:45.523Z,100795.25
2022-09-01T10:12:47.315Z,100797.00
2022-09-01T10:16:56.227Z,100790.81
2022-09-01T10:21:08.299Z,100771.47
2022-09-01T10:25:17.464Z,100778.28
2022-09-01T10:29:35.282Z,100774.69
2022-09-01T10:33:43.318Z,100780.97
2022-09-01T10:37:45.065Z,100780.41
2022-09-01T10:42:00.322Z,100771.78
2022-09-01T10:46:40.674Z,100773.56
2022-09-01T10:50:43.313Z,100767.50
2022-09-01T10:54:52.805Z,100753.41
2022-09-01T10:59:37.295Z,100759.38
2022-09-01T11:03:51.854Z,100761.38
2022-09-01T11:08:01.765Z,100753.59
2022-09-01T11:12:47.352Z,100751.81
2022-09-01T11:17:16.188Z,100734.31
2022-09-01T11:21:28.827Z,100740.25
2022-09-01T11:30:37.665Z,100723.56
2022-09-01T11:34:44.510Z,100724.31
2022-09-01T11:38:51.148Z,100725.94
2022-09-01T11:42:56.907Z,100719.78
2022-09-01T11:47:04.587Z,100718.69
2022-09-01T11:51:06.287Z,100713.22
2022-09-01T11:55:10.310Z,100708.63
2022-09-01T11:59:12.313Z,100706.75
2022-09-01T12:03:27.366Z,100699.56
2022-09-01T12:07:32.255Z,100701.16
2022-09-01T12:11:36.027Z,100703.94
2022-09-01T12:16:00.476Z,100693.00
2022-09-01T12:20:42.879Z,100682.25
2022-09-01T12:24:47.442Z,100688.84
2022-09-01T12:28:49.739Z,100687.13
2022-09-01T12:32:51.954Z,100676.81
2022-09-01T12:37:10.841Z,100672.31
2022-09-01T12:41:26.036Z,100674.78
2022-09-01T12:45:46.053Z,100673.47
2022-09-01T12:49:52.031Z,100670.78
2022-09-01T12:53:58.606Z,100674.69
2022-09-01T12:58:07.041Z,100663.97
2022-09-01T13:02:48.227Z,100670.56
2022-09-01T13:06:51.285Z,100666.94
2022-09-01T13:10:55.917Z,100662.84
2022-09-01T13:14:57.493Z,100650.72
2022-09-01T13:19:21.792Z,100658.78
2022-09-01T13:23:21.926Z,100643.63
2022-09-01T13:27:23.967Z,100644.06
2022-09-01T13:31:29.690Z,100639.16
2022-09-01T13:35:32.061Z,100624.28
2022-09-01T13:39:33.726Z,100628.09
2022-09-01T13:43:35.388Z,100623.78
2022-09-01T13:48:15.246Z,100619.56
2022-09-01T13:51:58.696Z,100606.84
2022-09-01T13:56:00.468Z,100603.97
2022-09-01T14:00:02.360Z,100608.72
2022-09-01T14:04:12.767Z,100602.75
2022-09-01T14:08:17.003Z,100601.66
2022-09-01T14:12:18.663Z,100600.22
2022-09-01T14:16:20.414Z,100603.44
2022-09-01T14:20:25.017Z,100595.84
2022-09-01T14:24:27.976Z,100605.06
2022-09-01T14:28:29.567Z,100589.53
2022-09-01T14:32:31.360Z,100590.63
2022-09-01T14:36:32.975Z,100587.38
2022-09-01T14:40:37.858Z,100573.31
2022-09-01T14:44:39.905Z,100573.31
2022-09-01T14:48:41.833Z,100575.84
2022-09-01T14:52:43.874Z,100554.34
2022-09-01T14:57:28.110Z,100561.88
2022-09-01T15:01:23.602Z,100554.88
2022-09-01T15:05:28.765Z,100553.13
2022-09-01T15:09:30.320Z,100549.75
2022-09-01T15:13:32.032Z,100548.81
2022-09-01T15:17:33.889Z,100543.19
2022-09-01T15:21:36.812Z,100537.91
2022-09-01T15:25:38.455Z,100535.31
2022-09-01T15:29:46.743Z,100538.53
2022-09-01T15:33:48.454Z,100533.38
2022-09-01T15:37:51.778Z,100531.72
2022-09-01T15:41:53.964Z,100529.03
2022-09-01T15:45:59.667Z,100525.19
2022-09-01T15:50:02.446Z,100519.97
2022-09-01T15:54:10.976Z,100510.53
2022-09-01T15:58:15.424Z,100515.34
2022-09-01T16:02:17.970Z,100517.50
2022-09-01T16:06:19.655Z,100524.78
2022-09-01T16:10:22.131Z,100527.06
2022-09-01T16:14:23.890Z,100528.72
2022-09-01T16:18:25.444Z,100509.53
2022-09-01T16:22:35.537Z,100523.13
2022-09-01T16:26:38.355Z,100525.88
2022-09-01T16:30:40.634Z,100530.09
2022-09-01T16:34:49.559Z,100519.22
2022-09-01T16:38:59.019Z,100530.09
2022-09-01T16:43:24.633Z,100533.88
2022-09-01T16:47:49.925Z,100523.84
2022-09-01T16:52:16.266Z,100530.31
2022-09-01T16:57:03.163Z,100523.59
2022-09-01T17:01:20.226Z,100518.00
2022-09-01T17:05:42.101Z,100526.13
2022-09-01T17:09:48.221Z,100517.59
2022-09-01T17:13:52.151Z,100523.03
2022-09-01T17:18:21.744Z,100521.53
2022-09-01T17:22:25.687Z,100519.25
2022-09-01T17:26:30.108Z,100521.19
2022-09-01T17:30:36.166Z,100522.22
2022-09-01T17:34:51.673Z,100535.47
2022-09-01T17:39:11.247Z,100527.91
2022-09-01T17:43:18.153Z,100539.38
2022-09-01T17:47:52.953Z,100534.25
2022-09-01T17:51:54.556Z,100539.59
2022-09-01T17:56:05.684Z,100547.63
2022-09-01T18:00:46.437Z,100543.41
2022-09-01T18:05:12.829Z,100547.00
2022-09-01T18:09:17.898Z,100554.09
2022-09-01T18:13:52.922Z,100556.78
2022-09-01T18:18:10.631Z,100551.69
2022-09-01T18:22:16.353Z,100557.84
2022-09-01T18:26:29.609Z,100570.03
2022-09-01T18:30:52.582Z,100577.97
2022-09-01T18:35:18.878Z,100577.13
2022-09-01T18:39:41.406Z,100588.50
2022-09-01T18:43:47.337Z,100586.88
2022-09-01T18:48:07.275Z,100584.28
2022-09-01T18:52:38.942Z,100590.44
2022-09-01T18:56:54.584Z,100592.28
2022-09-01T19:01:09.433Z,100602.75
2022-09-01T19:05:41.400Z,100600.19
2022-09-01T19:09:52.143Z,100596.78
2022-09-01T19:14:21.453Z,100588.16
2022-09-01T19:18:25.956Z,100603.00
2022-09-01T19:22:40.414Z,100599.53
2022-09-01T19:26:45.251Z,100606.53
2022-09-01T19:31:05.517Z,100610.88
2022-09-01T19:35:16.489Z,100601.34
2022-09-01T19:39:21.795Z,100608.34
2022-09-01T19:43:23.839Z,100609.22
2022-09-01T19:47:28.341Z,100607.53
2022-09-01T19:51:34.187Z,100608.41
2022-09-01T19:55:54.737Z,100605.81
2022-09-01T20:00:12.158Z,100609.31
2022-09-01T20:04:32.846Z,100607.59
2022-09-01T20:08:48.462Z,100605.91
2022-09-01T20:13:22.605Z,100612.88
2022-09-01T20:17:49.707Z,100607.69
2022-09-01T20:21:51.495Z,100598.16
2022-09-01T20:25:58.701Z,100612.06
2022-09-01T20:30:12.911Z,100602.53
2022-09-01T20:34:21.095Z,100605.97
2022-09-01T20:39:08.774Z,100605.13
2022-09-01T20:43:22.481Z,100602.56
2022-09-01T20:47:27.552Z,100611.28
2022-09-01T20:51:59.423Z,100607.81
2022-09-01T20:56:25.930Z,100602.63
2022-09-01T21:00:30.006Z,100604.34
2022-09-01T21:04:50.868Z,100612.19
2022-09-01T21:09:24.744Z,100604.38
2022-09-01T21:13:45.738Z,100603.53
2022-09-01T21:18:18.524Z,100606.16
2022-09-01T21:22:22.415Z,100607.03
2022-09-01T21:26:24.286Z,100595.78
2022-09-01T21:30:30.179Z,100598.38
2022-09-01T21:34:31.934Z,100604.44
2022-09-01T21:38:34.736Z,100598.38
2022-09-01T21:42:41.077Z,100602.72
2022-09-01T21:46:42.933Z,100604.47
2022-09-01T21:50:45.433Z,100591.47
2022-09-01T21:54:47.431Z,100593.22
2022-09-01T21:58:49.877Z,100585.41
2022-09-01T22:02:52.682Z,100585.41
2022-09-01T22:06:54.421Z,100586.28
2022-09-01T22:10:56.311Z,100581.94
2022-09-01T22:14:57.862Z,100575.91
2022-09-01T22:19:00.089Z,100585.41
2022-09-01T22:23:02.717Z,100578.47
2022-09-01T22:27:04.346Z,100578.50
2022-09-01T22:31:07.099Z,100579.38
2022-09-01T22:35:10.457Z,100571.53
2022-09-01T22:39:13.873Z,100573.25
2022-09-01T22:43:18.894Z,100578.47
2022-09-01T22:47:20.505Z,100577.63
2022-09-01T22:51:22.543Z,100577.59
2022-09-01T22:59:25.933Z,100593.19
2022-09-01T23:03:27.502Z,100590.59
2022-09-01T23:07:29.073Z,100585.41
2022-09-01T23:11:30.857Z,100594.94
2022-09-01T23:15:33.473Z,100582.81
2022-09-01T23:19:35.150Z,100584.50
2022-09-01T23:23:37.764Z,100590.59
2022-09-01T23:27:39.907Z,100583.66
2022-09-01T23:31:41.703Z,100586.22
2022-09-01T23:35:47.917Z,100591.41
2022-09-01T23:39:49.536Z,100576.66
2022-09-01T23:43:54.182Z,100580.97
2022-09-01T23:47:55.755Z,100579.25
2022-09-01T23:51:57.680Z,100571.44
2022-09-01T23:56:03.867Z,100568.84
